sensor_id;sensor_type;location;lat;lon;timestamp;pressure;altitude;pressure_sealevel;temperature;humidity
65758;BME280;52495;52.208;5.158;2024-02-26T00:01:13;99897.81;;;6.19;100.00
65758;BME280;52495;52.208;5.158;2024-02-26T00:03:39;99894.44;;;6.17;100.00
65758;BME280;52495;52.208;5.158;2024-02-26T00:06:09;99888.50;;;6.14;100.00
65758;BME280;52495;52.208;5.158;2024-02-26T00:08:35;99897.00;;;6.19;100.00
65758;BME280;52495;52.208;5.158;2024-02-26T00:11:02;99889.38;;;6.13;100.00
65758;BME280;52495;52.208;5.158;2024-02-26T00:13:29;99900.56;;;6.07;100.00
65758;BME280;52495;52.208;5.158;2024-02-26T00:15:56;99886.81;;;6.13;100.00
65758;BME280;52495;52.208;5.158;2024-02-26T00:18:22;99895.47;;;6.04;100.00
65758;BME280;52495;52.208;5.158;2024-02-26T00:20:49;99902.34;;;6.03;100.00
65758;BME280;52495;52.208;5.158;2024-02-26T00:23:17;99899.66;;;6.10;100.00
65758;BME280;52495;52.208;5.158;2024-02-26T00:25:44;99905.69;;;6.07;100.00
65758;BME280;52495;52.208;5.158;2024-02-26T00:28:11;99906.63;;;6.01;100.00
65758;BME280;52495;52.208;5.158;2024-02-26T00:30:38;99916.91;;;5.95;100.00
65758;BME280;52495;52.208;5.158;2024-02-26T00:33:05;99909.19;;;5.98;100.00
65758;BME280;52495;52.208;5.158;2024-02-26T00:35:32;99908.41;;;5.95;100.00
65758;BME280;52495;52.208;5.158;2024-02-26T00:37:58;99915.22;;;5.96;100.00
65758;BME280;52495;52.208;5.158;2024-02-26T00:40:28;99917.00;;;5.90;100.00
65758;BME280;52495;52.208;5.158;2024-02-26T00:42:55;99918.66;;;5.93;100.00
65758;BME280;52495;52.208;5.158;2024-02-26T00:45:22;99911.81;;;5.93;100.00
65758;BME280;52495;52.208;5.158;2024-02-26T00:47:48;99914.41;;;5.92;100.00
65758;BME280;52495;52.208;5.158;2024-02-26T00:50:15;99911.00;;;5.90;100.00
65758;BME280;52495;52.208;5.158;2024-02-26T00:52:42;99917.00;;;5.90;100.00
65758;BME280;52495;52.208;5.158;2024-02-26T00:55:09;99917.03;;;5.87;100.00
65758;BME280;52495;52.208;5.158;2024-02-26T00:57:37;99919.47;;;5.95;100.00
65758;BME280;52495;52.208;5.158;2024-02-26T01:00:07;99912.69;;;5.92;100.00
65758;BME280;52495;52.208;5.158;2024-02-26T01:02:34;99916.09;;;5.95;100.00
65758;BME280;52495;52.208;5.158;2024-02-26T01:05:01;99914.41;;;5.93;100.00
65758;BME280;52495;52.208;5.158;2024-02-26T01:07:28;99917.91;;;5.85;100.00
65758;BME280;52495;52.208;5.158;2024-02-26T01:09:58;99912.88;;;5.80;100.00
65758;BME280;52495;52.208;5.158;2024-02-26T01:12:25;99920.47;;;5.83;100.00
65758;BME280;52495;52.208;5.158;2024-02-26T01:14:53;99923.88;;;5.87;100.00
65758;BME280;52495;52.208;5.158;2024-02-26T01:17:20;99919.72;;;5.76;100.00
65758;BME280;52495;52.208;5.158;2024-02-26T01:19:47;99915.44;;;5.78;100.00
65758;BME280;52495;52.208;5.158;2024-02-26T01:22:14;99908.56;;;5.81;100.00
65758;BME280;52495;52.208;5.158;2024-02-26T01:24:40;99921.38;;;5.81;100.00
65758;BME280;52495;52.208;5.158;2024-02-26T01:27:07;99926.44;;;5.85;100.00
65758;BME280;52495;52.208;5.158;2024-02-26T01:29:34;99929.94;;;5.80;100.00
65758;BME280;52495;52.208;5.158;2024-02-26T01:32:02;99925.69;;;5.75;100.00
65758;BME280;52495;52.208;5.158;2024-02-26T01:34:30;99917.22;;;5.72;100.00
65758;BME280;52495;52.208;5.158;2024-02-26T01:36:57;99924.91;;;5.72;100.00
65758;BME280;52495;52.208;5.158;2024-02-26T01:39:24;99926.59;;;5.73;100.00
65758;BME280;52495;52.208;5.158;2024-02-26T01:41:50;99920.59;;;5.72;100.00
65758;BME280;52495;52.208;5.158;2024-02-26T01:44:17;99924.94;;;5.69;100.00
65758;BME280;52495;52.208;5.158;2024-02-26T01:46:44;99919.84;;;5.67;100.00
65758;BME280;52495;52.208;5.158;2024-02-26T01:49:12;99913.13;;;5.58;100.00
65758;BME280;52495;52.208;5.158;2024-02-26T01:51:41;99915.56;;;5.69;100.00
65758;BME280;52495;52.208;5.158;2024-02-26T01:54:09;99919.81;;;5.69;100.00
65758;BME280;52495;52.208;5.158;2024-02-26T01:56:36;99919.84;;;5.66;100.00
65758;BME280;52495;52.208;5.158;2024-02-26T01:59:05;99918.19;;;5.63;100.00
65758;BME280;52495;52.208;5.158;2024-02-26T02:01:33;99922.41;;;5.67;100.00
65758;BME280;52495;52.208;5.158;2024-02-26T02:04:00;99920.59;;;5.72;100.00
65758;BME280;52495;52.208;5.158;2024-02-26T02:06:29;99933.50;;;5.65;100.00
65758;BME280;52495;52.208;5.158;2024-02-26T02:08:56;99927.59;;;5.61;100.00
65758;BME280;52495;52.208;5.158;2024-02-26T02:11:23;99917.38;;;5.58;100.00
65758;BME280;52495;52.208;5.158;2024-02-26T02:13:50;99929.28;;;5.62;100.00
65758;BME280;52495;52.208;5.158;2024-02-26T02:16:16;99931.97;;;5.53;100.00
65758;BME280;52495;52.208;5.158;2024-02-26T02:18:43;99933.50;;;5.66;100.00
65758;BME280;52495;52.208;5.158;2024-02-26T02:21:11;99942.19;;;5.53;100.00
65758;BME280;52495;52.208;5.158;2024-02-26T02:23:38;99945.59;;;5.53;100.00
65758;BME280;52495;52.208;5.158;2024-02-26T02:26:05;99942.22;;;5.48;100.00
65758;BME280;52495;52.208;5.158;2024-02-26T02:28:32;99938.81;;;5.49;100.00
65758;BME280;52495;52.208;5.158;2024-02-26T02:30:59;99943.91;;;5.54;100.00
65758;BME280;52495;52.208;5.158;2024-02-26T02:33:26;99948.13;;;5.56;100.00
65758;BME280;52495;52.208;5.158;2024-02-26T02:35:53;99945.50;;;5.62;100.00
65758;BME280;52495;52.208;5.158;2024-02-26T02:38:22;99950.66;;;5.59;100.00
65758;BME280;52495;52.208;5.158;2024-02-26T02:40:51;99952.25;;;5.67;100.00
65758;BME280;52495;52.208;5.158;2024-02-26T02:43:18;99956.63;;;5.61;100.00
65758;BME280;52495;52.208;5.158;2024-02-26T02:45:44;99957.44;;;5.64;100.00
65758;BME280;52495;52.208;5.158;2024-02-26T02:48:11;99954.06;;;5.61;100.00
65758;BME280;52495;52.208;5.158;2024-02-26T02:50:38;99944.59;;;5.68;100.00
65758;BME280;52495;52.208;5.158;2024-02-26T02:53:04;99947.22;;;5.59;100.00
65758;BME280;52495;52.208;5.158;2024-02-26T02:55:33;99951.53;;;5.57;100.00
65758;BME280;52495;52.208;5.158;2024-02-26T02:57:59;99966.81;;;5.63;100.00
65758;BME280;52495;52.208;5.158;2024-02-26T03:00:26;99962.50;;;5.67;100.00
65758;BME280;52495;52.208;5.158;2024-02-26T03:02:53;99967.72;;;5.59;100.00
65758;BME280;52495;52.208;5.158;2024-02-26T03:05:19;99978.78;;;5.61;100.00
65758;BME280;52495;52.208;5.158;2024-02-26T03:07:46;99982.22;;;5.60;100.00
65758;BME280;52495;52.208;5.158;2024-02-26T03:10:13;99978.75;;;5.67;100.00
65758;BME280;52495;52.208;5.158;2024-02-26T03:12:41;99988.13;;;5.67;100.00
65758;BME280;52495;52.208;5.158;2024-02-26T03:15:09;100000.06;;;5.68;100.00
65758;BME280;52495;52.208;5.158;2024-02-26T03:17:37;99997.47;;;5.71;100.00
65758;BME280;52495;52.208;5.158;2024-02-26T03:20:05;99999.25;;;5.64;100.00
65758;BME280;52495;52.208;5.158;2024-02-26T03:22:34;100003.47;;;5.71;100.00
65758;BME280;52495;52.208;5.158;2024-02-26T03:25:00;99995.81;;;5.68;100.00
65758;BME280;52495;52.208;5.158;2024-02-26T03:27:27;100008.59;;;5.67;100.00
65758;BME280;52495;52.208;5.158;2024-02-26T03:29:55;100007.84;;;5.57;100.00
65758;BME280;52495;52.208;5.158;2024-02-26T03:32:22;100000.97;;;5.64;100.00
65758;BME280;52495;52.208;5.158;2024-02-26T03:34:48;100003.53;;;5.64;100.00
65758;BME280;52495;52.208;5.158;2024-02-26T03:37:15;100005.19;;;5.68;100.00
65758;BME280;52495;52.208;5.158;2024-02-26T03:39:42;100002.66;;;5.66;100.00
65758;BME280;52495;52.208;5.158;2024-02-26T03:42:09;99999.31;;;5.58;100.00
65758;BME280;52495;52.208;5.158;2024-02-26T03:44:35;100012.09;;;5.61;100.00
65758;BME280;52495;52.208;5.158;2024-02-26T03:47:03;100007.81;;;5.61;100.00
65758;BME280;52495;52.208;5.158;2024-02-26T03:49:30;100015.53;;;5.57;100.00
65758;BME280;52495;52.208;5.158;2024-02-26T03:51:57;100017.25;;;5.56;100.00
65758;BME280;52495;52.208;5.158;2024-02-26T03:54:23;100026.59;;;5.64;100.00
65758;BME280;52495;52.208;5.158;2024-02-26T03:56:50;100027.50;;;5.56;100.00
65758;BME280;52495;52.208;5.158;2024-02-26T03:59:17;100034.31;;;5.56;100.00
65758;BME280;52495;52.208;5.158;2024-02-26T04:01:45;100028.31;;;5.60;100.00
65758;BME280;52495;52.208;5.158;2024-02-26T04:04:13;100035.16;;;5.58;100.00
65758;BME280;52495;52.208;5.158;2024-02-26T04:06:44;100040.34;;;5.52;100.00
65758;BME280;52495;52.208;5.158;2024-02-26T04:09:10;100041.13;;;5.58;100.00
65758;BME280;52495;52.208;5.158;2024-02-26T04:11:37;100046.19;;;5.65;100.00
65758;BME280;52495;52.208;5.158;2024-02-26T04:14:04;100046.09;;;5.75;100.00
65758;BME280;52495;52.208;5.158;2024-02-26T04:16:31;100049.50;;;5.76;100.00
65758;BME280;52495;52.208;5.158;2024-02-26T04:18:58;100046.94;;;5.74;100.00
65758;BME280;52495;52.208;5.158;2024-02-26T04:21:26;100048.66;;;5.74;100.00
65758;BME280;52495;52.208;5.158;2024-02-26T04:23:53;100056.34;;;5.74;100.00
65758;BME280;52495;52.208;5.158;2024-02-26T04:26:20;100057.28;;;5.65;100.00
65758;BME280;52495;52.208;5.158;2024-02-26T04:28:47;100055.69;;;5.55;100.00
65758;BME280;52495;52.208;5.158;2024-02-26T04:31:14;100069.31;;;5.58;100.00
65758;BME280;52495;52.208;5.158;2024-02-26T04:33:40;100061.47;;;5.72;100.00
65758;BME280;52495;52.208;5.158;2024-02-26T04:36:13;100065.75;;;5.72;100.00
65758;BME280;52495;52.208;5.158;2024-02-26T04:38:42;100069.25;;;5.63;100.00
65758;BME280;52495;52.208;5.158;2024-02-26T04:41:08;100068.34;;;5.69;100.00
65758;BME280;52495;52.208;5.158;2024-02-26T04:43:35;100068.41;;;5.64;100.00
65758;BME280;52495;52.208;5.158;2024-02-26T04:46:06;100072.66;;;5.65;100.00
65758;BME280;52495;52.208;5.158;2024-02-26T04:48:33;100074.34;;;5.66;100.00
65758;BME280;52495;52.208;5.158;2024-02-26T04:51:00;100071.88;;;5.57;100.00
65758;BME280;52495;52.208;5.158;2024-02-26T04:53:27;100070.94;;;5.66;100.00
65758;BME280;52495;52.208;5.158;2024-02-26T04:55:55;100075.22;;;5.65;100.00
65758;BME280;52495;52.208;5.158;2024-02-26T04:58:22;100073.56;;;5.59;100.00
65758;BME280;52495;52.208;5.158;2024-02-26T05:00:48;100071.88;;;5.58;100.00
65758;BME280;52495;52.208;5.158;2024-02-26T05:03:15;100073.69;;;5.45;100.00
65758;BME280;52495;52.208;5.158;2024-02-26T05:05:42;100069.34;;;5.54;100.00
65758;BME280;52495;52.208;5.158;2024-02-26T05:08:09;100079.66;;;5.47;100.00
65758;BME280;52495;52.208;5.158;2024-02-26T05:10:37;100078.75;;;5.52;100.00
65758;BME280;52495;52.208;5.158;2024-02-26T05:13:07;100084.75;;;5.51;100.00
65758;BME280;52495;52.208;5.158;2024-02-26T05:15:34;100078.75;;;5.50;100.00
65758;BME280;52495;52.208;5.158;2024-02-26T05:18:01;100083.06;;;5.46;100.00
65758;BME280;52495;52.208;5.158;2024-02-26T05:20:27;100089.00;;;5.50;100.00
65758;BME280;52495;52.208;5.158;2024-02-26T05:22:54;100087.28;;;5.49;100.00
65758;BME280;52495;52.208;5.158;2024-02-26T05:25:21;100088.28;;;5.34;100.00
65758;BME280;52495;52.208;5.158;2024-02-26T05:27:47;100089.91;;;5.41;100.00
65758;BME280;52495;52.208;5.158;2024-02-26T05:30:16;100095.91;;;5.40;100.00
65758;BME280;52495;52.208;5.158;2024-02-26T05:32:43;100096.75;;;5.44;100.00
65758;BME280;52495;52.208;5.158;2024-02-26T05:35:09;100100.16;;;5.46;100.00
65758;BME280;52495;52.208;5.158;2024-02-26T05:37:36;100105.31;;;5.37;100.00
65758;BME280;52495;52.208;5.158;2024-02-26T05:40:04;100101.81;;;5.47;100.00
65758;BME280;52495;52.208;5.158;2024-02-26T05:42:31;100100.16;;;5.46;100.00
65758;BME280;52495;52.208;5.158;2024-02-26T05:44:58;100101.84;;;5.42;100.00
65758;BME280;52495;52.208;5.158;2024-02-26T05:47:32;100108.75;;;5.32;100.00
65758;BME280;52495;52.208;5.158;2024-02-26T05:49:58;100106.19;;;5.37;100.00
65758;BME280;52495;52.208;5.158;2024-02-26T05:52:26;100122.41;;;5.31;100.00
65758;BME280;52495;52.208;5.158;2024-02-26T05:54:53;100111.25;;;5.42;100.00
65758;BME280;52495;52.208;5.158;2024-02-26T05:57:20;100112.97;;;5.43;100.00
65758;BME280;52495;52.208;5.158;2024-02-26T05:59:46;100127.47;;;5.39;100.00
65758;BME280;52495;52.208;5.158;2024-02-26T06:02:13;100119.75;;;5.49;100.00
65758;BME280;52495;52.208;5.158;2024-02-26T06:04:41;100120.59;;;5.47;100.00
65758;BME280;52495;52.208;5.158;2024-02-26T06:07:08;100131.78;;;5.36;100.00
65758;BME280;52495;52.208;5.158;2024-02-26T06:09:34;100141.91;;;5.48;100.00
65758;BME280;52495;52.208;5.158;2024-02-26T06:12:01;100141.97;;;5.40;100.00
65758;BME280;52495;52.208;5.158;2024-02-26T06:14:28;100147.09;;;5.43;100.00
65758;BME280;52495;52.208;5.158;2024-02-26T06:16:54;100149.59;;;5.50;100.00
65758;BME280;52495;52.208;5.158;2024-02-26T06:19:21;100156.41;;;5.49;100.00
65758;BME280;52495;52.208;5.158;2024-02-26T06:21:49;100155.53;;;5.53;100.00
65758;BME280;52495;52.208;5.158;2024-02-26T06:24:16;100155.56;;;5.50;100.00
65758;BME280;52495;52.208;5.158;2024-02-26T06:26:43;100158.16;;;5.45;100.00
65758;BME280;52495;52.208;5.158;2024-02-26T06:29:09;100156.41;;;5.54;100.00
65758;BME280;52495;52.208;5.158;2024-02-26T06:31:36;100164.16;;;5.41;100.00
65758;BME280;52495;52.208;5.158;2024-02-26T06:34:03;100171.78;;;5.49;100.00
65758;BME280;52495;52.208;5.158;2024-02-26T06:36:30;100182.06;;;5.47;100.00
65758;BME280;52495;52.208;5.158;2024-02-26T06:38:59;100170.09;;;5.48;100.00
65758;BME280;52495;52.208;5.158;2024-02-26T06:41:25;100166.66;;;5.49;100.00
65758;BME280;52495;52.208;5.158;2024-02-26T06:43:53;100176.06;;;5.50;100.00
65758;BME280;52495;52.208;5.158;2024-02-26T06:46:20;100164.09;;;5.49;100.00
65758;BME280;52495;52.208;5.158;2024-02-26T06:48:47;100173.56;;;5.41;100.00
65758;BME280;52495;52.208;5.158;2024-02-26T06:51:14;100193.19;;;5.42;100.00
65758;BME280;52495;52.208;5.158;2024-02-26T06:53:41;100188.94;;;5.41;100.00
65758;BME280;52495;52.208;5.158;2024-02-26T06:56:09;100194.88;;;5.41;100.00
65758;BME280;52495;52.208;5.158;2024-02-26T06:58:36;100196.56;;;5.45;100.00
65758;BME280;52495;52.208;5.158;2024-02-26T07:01:03;100195.78;;;5.37;100.00
65758;BME280;52495;52.208;5.158;2024-02-26T07:03:29;100201.75;;;5.36;100.00
65758;BME280;52495;52.208;5.158;2024-02-26T07:05:56;100199.13;;;5.42;100.00
65758;BME280;52495;52.208;5.158;2024-02-26T07:08:23;100218.72;;;5.48;100.00
65758;BME280;52495;52.208;5.158;2024-02-26T07:10:50;100216.16;;;5.48;100.00
65758;BME280;52495;52.208;5.158;2024-02-26T07:13:18;100221.34;;;5.39;100.00
65758;BME280;52495;52.208;5.158;2024-02-26T07:15:46;100217.97;;;5.35;100.00
65758;BME280;52495;52.208;5.158;2024-02-26T07:18:12;100220.56;;;5.32;100.00
65758;BME280;52495;52.208;5.158;2024-02-26T07:20:39;100231.63;;;5.36;100.00
65758;BME280;52495;52.208;5.158;2024-02-26T07:23:06;100234.16;;;5.39;100.00
65758;BME280;52495;52.208;5.158;2024-02-26T07:25:33;100233.31;;;5.40;100.00
65758;BME280;52495;52.208;5.158;2024-02-26T07:27:59;100235.03;;;5.38;100.00
65758;BME280;52495;52.208;5.158;2024-02-26T07:30:28;100237.59;;;5.35;100.00
65758;BME280;52495;52.208;5.158;2024-02-26T07:32:54;100249.53;;;5.36;100.00
65758;BME280;52495;52.208;5.158;2024-02-26T07:35:22;100249.53;;;5.39;100.00
65758;BME280;52495;52.208;5.158;2024-02-26T07:37:48;100254.69;;;5.28;100.00
65758;BME280;52495;52.208;5.158;2024-02-26T07:40:16;100255.50;;;5.31;100.00
65758;BME280;52495;52.208;5.158;2024-02-26T07:42:42;100258.06;;;5.38;100.00
65758;BME280;52495;52.208;5.158;2024-02-26T07:45:10;100251.25;;;5.30;100.00
65758;BME280;52495;52.208;5.158;2024-02-26T07:47:38;100254.66;;;5.34;100.00
65758;BME280;52495;52.208;5.158;2024-02-26T07:50:07;100262.38;;;5.29;100.00
65758;BME280;52495;52.208;5.158;2024-02-26T07:52:34;100260.69;;;5.28;100.00
65758;BME280;52495;52.208;5.158;2024-02-26T07:55:00;100266.63;;;5.32;100.00
65758;BME280;52495;52.208;5.158;2024-02-26T07:57:27;100259.81;;;5.29;100.00
65758;BME280;52495;52.208;5.158;2024-02-26T07:59:54;100271.78;;;5.24;100.00
65758;BME280;52495;52.208;5.158;2024-02-26T08:02:21;100282.88;;;5.23;100.00
65758;BME280;52495;52.208;5.158;2024-02-26T08:04:50;100281.16;;;5.24;100.00
65758;BME280;52495;52.208;5.158;2024-02-26T08:07:17;100289.66;;;5.32;100.00
65758;BME280;52495;52.208;5.158;2024-02-26T08:09:44;100293.91;;;5.31;100.00
65758;BME280;52495;52.208;5.158;2024-02-26T08:12:11;100299.03;;;5.31;100.00
65758;BME280;52495;52.208;5.158;2024-02-26T08:14:38;100300.75;;;5.32;100.00
65758;BME280;52495;52.208;5.158;2024-02-26T08:17:05;100299.91;;;5.29;100.00
65758;BME280;52495;52.208;5.158;2024-02-26T08:19:31;100300.72;;;5.36;100.00
65758;BME280;52495;52.208;5.158;2024-02-26T08:22:00;100297.31;;;5.30;100.00
65758;BME280;52495;52.208;5.158;2024-02-26T08:24:26;100297.38;;;5.27;100.00
65758;BME280;52495;52.208;5.158;2024-02-26T08:26:53;100299.91;;;5.29;100.00
65758;BME280;52495;52.208;5.158;2024-02-26T08:29:20;100310.94;;;5.42;100.00
65758;BME280;52495;52.208;5.158;2024-02-26T08:31:47;100310.09;;;5.37;100.00
65758;BME280;52495;52.208;5.158;2024-02-26T08:34:14;100318.66;;;5.36;100.00
65758;BME280;52495;52.208;5.158;2024-02-26T08:36:40;100309.22;;;5.42;100.00
65758;BME280;52495;52.208;5.158;2024-02-26T08:39:10;100310.09;;;5.46;100.00
65758;BME280;52495;52.208;5.158;2024-02-26T08:41:39;100320.34;;;5.43;100.00
65758;BME280;52495;52.208;5.158;2024-02-26T08:44:05;100319.50;;;5.35;100.00
65758;BME280;52495;52.208;5.158;2024-02-26T08:46:32;100331.41;;;5.40;100.00
65758;BME280;52495;52.208;5.158;2024-02-26T08:48:59;100338.25;;;5.38;100.00
65758;BME280;52495;52.208;5.158;2024-02-26T08:51:25;100336.50;;;5.50;100.00
65758;BME280;52495;52.208;5.158;2024-02-26T08:53:52;100339.91;;;5.47;100.00
65758;BME280;52495;52.208;5.158;2024-02-26T08:56:20;100339.94;;;5.49;100.00
65758;BME280;52495;52.208;5.158;2024-02-26T08:58:47;100351.03;;;5.44;100.00
65758;BME280;52495;52.208;5.158;2024-02-26T09:01:19;100350.16;;;5.50;100.00
65758;BME280;52495;52.208;5.158;2024-02-26T09:03:46;100345.00;;;5.58;100.00
65758;BME280;52495;52.208;5.158;2024-02-26T09:06:14;100355.28;;;5.53;100.00
65758;BME280;52495;52.208;5.158;2024-02-26T09:08:41;100355.25;;;5.62;100.00
65758;BME280;52495;52.208;5.158;2024-02-26T09:11:08;100365.44;;;5.69;100.00
65758;BME280;52495;52.208;5.158;2024-02-26T09:13:37;100371.38;;;5.72;100.00
65758;BME280;52495;52.208;5.158;2024-02-26T09:16:04;100366.31;;;5.69;100.00
65758;BME280;52495;52.208;5.158;2024-02-26T09:18:31;100385.94;;;5.69;100.00
65758;BME280;52495;52.208;5.158;2024-02-26T09:20:58;100369.72;;;5.67;100.00
65758;BME280;52495;52.208;5.158;2024-02-26T09:23:25;100381.66;;;5.71;100.00
65758;BME280;52495;52.208;5.158;2024-02-26T09:25:51;100383.38;;;5.72;100.00
65758;BME280;52495;52.208;5.158;2024-02-26T09:28:18;100392.78;;;5.65;100.00
65758;BME280;52495;52.208;5.158;2024-02-26T09:30:46;100394.47;;;5.65;100.00
65758;BME280;52495;52.208;5.158;2024-02-26T09:33:14;100398.75;;;5.64;100.00
65758;BME280;52495;52.208;5.158;2024-02-26T09:35:41;100397.91;;;5.65;100.00
65758;BME280;52495;52.208;5.158;2024-02-26T09:38:07;100398.75;;;5.70;100.00
65758;BME280;52495;52.208;5.158;2024-02-26T09:40:34;100402.13;;;5.72;100.00
65758;BME280;52495;52.208;5.158;2024-02-26T09:43:04;100402.13;;;5.75;100.00
65758;BME280;52495;52.208;5.158;2024-02-26T09:45:33;100411.56;;;5.67;100.00
65758;BME280;52495;52.208;5.158;2024-02-26T09:48:02;100414.97;;;5.66;100.00
65758;BME280;52495;52.208;5.158;2024-02-26T09:50:31;100420.06;;;5.74;100.00
65758;BME280;52495;52.208;5.158;2024-02-26T09:52:59;100415.81;;;5.73;100.00
65758;BME280;52495;52.208;5.158;2024-02-26T09:55:28;100430.31;;;5.71;100.00
65758;BME280;52495;52.208;5.158;2024-02-26T09:57:55;100426.09;;;5.64;100.00
65758;BME280;52495;52.208;5.158;2024-02-26T10:00:23;100427.75;;;5.74;100.00
65758;BME280;52495;52.208;5.158;2024-02-26T10:02:51;100438.84;;;5.79;100.00
65758;BME280;52495;52.208;5.158;2024-02-26T10:05:21;100437.13;;;5.78;100.00
65758;BME280;52495;52.208;5.158;2024-02-26T10:07:48;100450.84;;;5.69;100.00
65758;BME280;52495;52.208;5.158;2024-02-26T10:10:15;100443.13;;;5.80;100.00
65758;BME280;52495;52.208;5.158;2024-02-26T10:12:42;100446.53;;;5.79;100.00
65758;BME280;52495;52.208;5.158;2024-02-26T10:15:09;100451.66;;;5.76;100.00
65758;BME280;52495;52.208;5.158;2024-02-26T10:17:36;100450.78;;;5.75;100.00
65758;BME280;52495;52.208;5.158;2024-02-26T10:20:12;100443.97;;;5.74;100.00
65758;BME280;52495;52.208;5.158;2024-02-26T10:22:40;100455.91;;;5.78;100.00
65758;BME280;52495;52.208;5.158;2024-02-26T10:25:08;100463.59;;;5.75;100.00
65758;BME280;52495;52.208;5.158;2024-02-26T10:27:35;100463.59;;;5.78;100.00
65758;BME280;52495;52.208;5.158;2024-02-26T10:30:03;100468.72;;;5.82;100.00
65758;BME280;52495;52.208;5.158;2024-02-26T10:32:30;100489.22;;;5.74;100.00
65758;BME280;52495;52.208;5.158;2024-02-26T10:34:57;100483.25;;;5.76;100.00
65758;BME280;52495;52.208;5.158;2024-02-26T10:37:24;100489.22;;;5.77;100.00
65758;BME280;52495;52.208;5.158;2024-02-26T10:39:53;100496.03;;;5.83;100.00
65758;BME280;52495;52.208;5.158;2024-02-26T10:42:19;100484.91;;;5.82;100.00
65758;BME280;52495;52.208;5.158;2024-02-26T10:44:46;100479.84;;;5.76;100.00
65758;BME280;52495;52.208;5.158;2024-02-26T10:47:14;100489.22;;;5.74;100.00
65758;BME280;52495;52.208;5.158;2024-02-26T10:49:45;100496.06;;;5.69;100.00
65758;BME280;52495;52.208;5.158;2024-02-26T10:52:13;100491.78;;;5.80;100.00
65758;BME280;52495;52.208;5.158;2024-02-26T10:54:41;100504.56;;;5.78;100.00
65758;BME280;52495;52.208;5.158;2024-02-26T10:57:13;100505.44;;;5.77;100.00
65758;BME280;52495;52.208;5.158;2024-02-26T10:59:42;100508.84;;;5.73;100.00
65758;BME280;52495;52.208;5.158;2024-02-26T11:02:10;100514.81;;;5.83;100.00
65758;BME280;52495;52.208;5.158;2024-02-26T11:04:39;100516.53;;;5.86;100.00
65758;BME280;52495;52.208;5.158;2024-02-26T11:07:08;100527.63;;;5.83;100.00
65758;BME280;52495;52.208;5.158;2024-02-26T11:09:35;100537.00;;;5.92;100.00
65758;BME280;52495;52.208;5.158;2024-02-26T11:12:08;100523.31;;;5.90;100.00
65758;BME280;52495;52.208;5.158;2024-02-26T11:14:38;100532.75;;;5.83;100.00
65758;BME280;52495;52.208;5.158;2024-02-26T11:17:07;100547.25;;;5.97;100.00
65758;BME280;52495;52.208;5.158;2024-02-26T11:19:35;100537.84;;;5.94;100.00
65758;BME280;52495;52.208;5.158;2024-02-26T11:22:02;100538.72;;;5.98;100.00
65758;BME280;52495;52.208;5.158;2024-02-26T11:24:29;100548.09;;;5.97;100.00
65758;BME280;52495;52.208;5.158;2024-02-26T11:26:59;100554.06;;;5.99;100.00
65758;BME280;52495;52.208;5.158;2024-02-26T11:29:37;100542.97;;;6.03;100.00
65758;BME280;52495;52.208;5.158;2024-02-26T11:32:06;100556.63;;;6.10;100.00
65758;BME280;52495;52.208;5.158;2024-02-26T11:34:33;100560.03;;;6.07;100.00
65758;BME280;52495;52.208;5.158;2024-02-26T11:37:09;100570.31;;;6.09;100.00
65758;BME280;52495;52.208;5.158;2024-02-26T11:39:36;100558.34;;;6.14;100.00
65758;BME280;52495;52.208;5.158;2024-02-26T11:42:05;100560.91;;;6.08;100.00
65758;BME280;52495;52.208;5.158;2024-02-26T11:44:32;100555.75;;;6.10;100.00
65758;BME280;52495;52.208;5.158;2024-02-26T11:47:11;100563.47;;;6.14;100.00
65758;BME280;52495;52.208;5.158;2024-02-26T11:49:38;100567.69;;;6.18;100.00
65758;BME280;52495;52.208;5.158;2024-02-26T11:52:06;100572.81;;;6.21;100.00
65758;BME280;52495;52.208;5.158;2024-02-26T11:54:43;100574.50;;;6.24;100.00
65758;BME280;52495;52.208;5.158;2024-02-26T11:57:20;100574.50;;;6.24;100.00
65758;BME280;52495;52.208;5.158;2024-02-26T11:59:48;100577.09;;;6.22;100.00
65758;BME280;52495;52.208;5.158;2024-02-26T12:02:41;100573.66;;;6.25;100.00
65758;BME280;52495;52.208;5.158;2024-02-26T12:05:11;100570.22;;;6.31;100.00
65758;BME280;52495;52.208;5.158;2024-02-26T12:07:40;100577.06;;;6.33;100.00
65758;BME280;52495;52.208;5.158;2024-02-26T12:10:16;100582.16;;;6.36;100.00
65758;BME280;52495;52.208;5.158;2024-02-26T12:12:42;100583.88;;;6.36;100.00
65758;BME280;52495;52.208;5.158;2024-02-26T12:15:09;100584.72;;;6.40;100.00
65758;BME280;52495;52.208;5.158;2024-02-26T12:17:38;100595.81;;;6.37;100.00
65758;BME280;52495;52.208;5.158;2024-02-26T12:20:10;100607.81;;;6.36;100.00
65758;BME280;52495;52.208;5.158;2024-02-26T12:22:37;100599.25;;;6.36;100.00
65758;BME280;52495;52.208;5.158;2024-02-26T12:25:08;100604.34;;;6.47;100.00
65758;BME280;52495;52.208;5.158;2024-02-26T12:27:35;100606.06;;;6.46;100.00
65758;BME280;52495;52.208;5.158;2024-02-26T12:30:02;100600.03;;;6.53;100.00
65758;BME280;52495;52.208;5.158;2024-02-26T12:32:29;100606.00;;;6.62;100.00
65758;BME280;52495;52.208;5.158;2024-02-26T12:34:56;100609.41;;;6.61;100.00
65758;BME280;52495;52.208;5.158;2024-02-26T12:37:25;100608.56;;;6.62;100.00
65758;BME280;52495;52.208;5.158;2024-02-26T12:39:52;100615.41;;;6.58;100.00
65758;BME280;52495;52.208;5.158;2024-02-26T12:42:19;100606.84;;;6.61;100.00
65758;BME280;52495;52.208;5.158;2024-02-26T12:44:46;100621.41;;;6.59;100.00
65758;BME280;52495;52.208;5.158;2024-02-26T12:47:13;100625.66;;;6.60;100.00
65758;BME280;52495;52.208;5.158;2024-02-26T12:49:42;100632.47;;;6.65;100.00
65758;BME280;52495;52.208;5.158;2024-02-26T12:52:10;100641.91;;;6.63;100.00
65758;BME280;52495;52.208;5.158;2024-02-26T12:54:38;100633.34;;;6.66;100.00